Patrick J. Studdert — WDG4262 — position and weather

sailwx.info

Track history (hours):
 
Tides and Currents Weather Stations Pressure Air Temp Water Temp Dewpoint Dewpoint Depression Visibility Wind Speed Wind Dir Waves Ship Positions

Patrick J. Studdert

Owner: SHAMROCK MARINE L.L.C., Kingwood, TX. More information available from US FCC via Universal Licensing System and Coast Guard Vessel Documentation Center.

Last reported at 2017-Sep-21 08:04 UTC. Time now 2017-Sep-22 04:37 UTC.
Position N 29°38' W 090°21'.

Length 100 m; draft 2.9 m.

Type: Towing. MMSI: 367534690.

Date/timePositionNaut miles runAvg speedWind from/ knotsBaromVisibWave heightAir tempDewpointWater temp
2017-Sep-21 08:04N 29°38' W 090°21'1 5.3
2017-Sep-21 07:56N 29°37' W 090°21'5 5.0
2017-Sep-21 07:01N 29°33' W 090°24'0 4.4
2017-Sep-21 07:00N 29°33' W 090°24'2 3.5
2017-Sep-21 06:30N 29°33' W 090°26'3 5.0
2017-Sep-21 06:00N 29°34' W 090°29'3 5.1
2017-Sep-21 05:30N 29°34' W 090°32'2 4.5
2017-Sep-21 05:00N 29°34' W 090°34'2 4.5
2017-Sep-21 04:30N 29°35' W 090°37'2 4.8
2017-Sep-21 04:00N 29°36' W 090°39'2 4.7
2017-Sep-21 03:30N 29°37' W 090°42'2 3.5
2017-Sep-21 03:00N 29°35' W 090°43'2 3.4
2017-Sep-21 02:30N 29°34' W 090°44'1 1.0
2017-Sep-21 02:00N 29°34' W 090°44'2 4.7
2017-Sep-21 01:31N 29°32' W 090°46'3 5.8
2017-Sep-21 01:00N 29°32' W 090°50'3 5.6
2017-Sep-21 00:30N 29°32' W 090°53'55 4.5
2017-Sep-20 12:07N 29°51' W 091°53'1 3.5
2017-Sep-20 11:53N 29°51' W 091°54'2 4.7
2017-Sep-20 11:30N 29°51' W 091°56'3 4.8
2017-Sep-20 10:58N 29°50' W 091°59'2 4.7
2017-Sep-20 10:30N 29°49' W 092°01'2 4.8
2017-Sep-20 09:59N 29°49' W 092°04'2 4.9
2017-Sep-20 09:30N 29°48' W 092°06'2 5.0
2017-Sep-20 09:00N 29°47' W 092°09'2 4.3
2017-Sep-20 08:30N 29°47' W 092°11'3 5.2
2017-Sep-20 08:00N 29°48' W 092°14'3 5.3
2017-Sep-20 07:30N 29°49' W 092°17'2 4.7
2017-Sep-20 07:00N 29°50' W 092°19'34 4.6
2017-Sep-19 23:33N 29°56' W 092°58'0 4.8
2017-Sep-19 23:30N 29°56' W 092°58'2 4.8
2017-Sep-19 22:59N 29°56' W 093°01'2 4.7
2017-Sep-19 22:30N 29°56' W 093°04'2 4.4
2017-Sep-19 22:00N 29°56' W 093°06'2 4.6
2017-Sep-19 21:30N 29°56' W 093°09'2 4.0
2017-Sep-19 21:00N 29°57' W 093°11'2 4.8
2017-Sep-19 20:30N 29°59' W 093°13'2 4.3
2017-Sep-19 20:00N 30°01' W 093°14'2 4.3
2017-Sep-19 19:30N 30°03' W 093°16'2 4.5
2017-Sep-19 19:00N 30°05' W 093°17'2 4.1
2017-Sep-19 18:30N 30°06' W 093°18'2 3.5
2017-Sep-19 18:00N 30°05' W 093°20'0 0.2
2017-Sep-19 17:30N 30°05' W 093°20'0 0.2
2017-Sep-19 17:00N 30°05' W 093°20'0 0.5
2017-Sep-19 16:30N 30°05' W 093°20'0 0.0
2017-Sep-19 16:00N 30°05' W 093°20'0 0.6
2017-Sep-19 15:30N 30°05' W 093°20'0 0.0
2017-Sep-19 15:00N 30°05' W 093°20'0 0.0
2017-Sep-19 14:30N 30°05' W 093°20'0 0.0
2017-Sep-19 14:00N 30°05' W 093°20'0 0.0
2017-Sep-19 13:30N 30°05' W 093°20'0 0.0
2017-Sep-19 13:00N 30°05' W 093°20'1 1.3
2017-Sep-19 12:30N 30°04' W 093°20'1 2.7
2017-Sep-19 12:00N 30°04' W 093°22'1 2.2
2017-Sep-19 11:30N 30°04' W 093°23'2 4.7
2017-Sep-19 11:00N 30°04' W 093°26'2 4.8
2017-Sep-19 10:30N 30°04' W 093°28'3 5.2
2017-Sep-19 10:00N 30°04' W 093°31'7 5.2
2017-Sep-19 08:42N 30°04' W 093°39'1 5.3
2017-Sep-19 08:30N 30°04' W 093°41'2 5.0
2017-Sep-19 08:00N 30°03' W 093°43'4 5.2
2017-Sep-19 07:10N 29°60' W 093°47'5 5.0
2017-Sep-19 06:10N 29°57' W 093°52'2 5.5
2017-Sep-19 05:54N 29°56' W 093°52'60 1.2
2017-Sep-17 04:51N 29°19' W 094°47'0 0.0
2017-Sep-17 02:41N 29°19' W 094°47'0 0.0
2017-Sep-17 02:29N 29°19' W 094°47'1414154.9
2017-Sep-16 17:22N 42°21' W 070°34'2 6.6
2017-Sep-16 16:59N 42°23' W 070°34'3 6.7
2017-Sep-16 16:30N 42°26' W 070°34'3 6.6
2017-Sep-16 16:00N 42°30' W 070°34'3 6.6
2017-Sep-16 15:31N 42°33' W 070°34'3 6.8
2017-Sep-16 15:01N 42°36' W 070°34'4 7.1
2017-Sep-16 14:31N 42°40' W 070°33'4 7.0
2017-Sep-16 14:00N 42°43' W 070°35'4 7.3
2017-Sep-16 13:29N 42°47' W 070°35'22 1.2
2017-Sep-15 18:51N 43°09' W 070°31'2 6.1
2017-Sep-15 18:27N 43°11' W 070°29'3 7.4
2017-Sep-15 18:00N 43°13' W 070°27'4 7.2
2017-Sep-15 17:30N 43°16' W 070°24'3 6.9
2017-Sep-15 17:00N 43°19' W 070°21'3 7.0
2017-Sep-15 16:30N 43°22' W 070°19'4 7.2
2017-Sep-15 16:00N 43°25' W 070°16'4 7.0
2017-Sep-15 15:30N 43°28' W 070°14'4 7.2
2017-Sep-15 15:00N 43°31' W 070°11'4 7.3
2017-Sep-15 14:30N 43°34' W 070°08'4 7.1
2017-Sep-15 14:00N 43°37' W 070°05'4 6.9
2017-Sep-15 13:29N 43°40' W 070°02'147041.2
2017-Sep-14 01:50N 29°21' W 094°47'7 5.4
2017-Sep-14 00:29N 29°28' W 094°51'3 5.9
2017-Sep-14 00:00N 29°30' W 094°52'3 5.8
2017-Sep-13 23:30N 29°33' W 094°54'3 5.5
2017-Sep-13 23:00N 29°35' W 094°56'2 4.7
2017-Sep-13 22:30N 29°37' W 094°57'3 5.4
2017-Sep-13 22:00N 29°39' W 094°58'3 5.6
2017-Sep-13 21:30N 29°42' W 094°60'3 4.9
2017-Sep-13 20:59N 29°44' W 095°02'2 5.2
2017-Sep-13 20:30N 29°45' W 095°04'2 4.4
2017-Sep-13 20:00N 29°45' W 095°06'2 4.3
2017-Sep-13 19:30N 29°44' W 095°09'6 1.8
2017-Sep-13 16:21N 29°43' W 095°15'0 0.0
2017-Sep-13 15:50N 29°43' W 095°15'0 0.0
2017-Sep-13 15:28N 29°43' W 095°15'0 0.0
2017-Sep-13 14:58N 29°43' W 095°15'0 0.0
2017-Sep-13 14:28N 29°43' W 095°15'0 0.0
2017-Sep-13 14:00N 29°43' W 095°15'0 0.0
2017-Sep-13 13:30N 29°43' W 095°15'0 0.0
2017-Sep-13 12:48N 29°43' W 095°15'0 0.0
2017-Sep-13 12:30N 29°43' W 095°15'0 0.0
2017-Sep-13 11:59N 29°43' W 095°15'0 0.0
2017-Sep-13 11:30N 29°43' W 095°15'0 0.0
2017-Sep-13 10:56N 29°43' W 095°15'0 0.0
2017-Sep-13 10:30N 29°43' W 095°15'0 0.0
2017-Sep-13 09:51N 29°43' W 095°15'0 0.0
2017-Sep-13 09:24N 29°43' W 095°15'0 0.0
2017-Sep-13 09:00N 29°43' W 095°15'0 0.0
2017-Sep-13 08:30N 29°43' W 095°15'0 0.0
2017-Sep-13 07:59N 29°43' W 095°15'0 0.0
2017-Sep-13 07:31N 29°43' W 095°15'0 0.0
2017-Sep-13 06:50N 29°43' W 095°15'0 0.0
2017-Sep-13 06:30N 29°43' W 095°15'0 0.1
2017-Sep-13 06:01N 29°43' W 095°15'0 0.1
2017-Sep-13 05:12N 29°43' W 095°15'0 0.2
2017-Sep-13 04:55N 29°43' W 095°15'0 0.0
2017-Sep-13 04:27N 29°43' W 095°15'0 0.0
2017-Sep-13 04:00N 29°43' W 095°15'0 0.0
2017-Sep-13 03:29N 29°43' W 095°15'0 0.0
2017-Sep-13 02:51N 29°43' W 095°15'0 0.0
2017-Sep-13 02:28N 29°43' W 095°15'0 0.0
2017-Sep-13 02:00N 29°43' W 095°15'0 0.0
2017-Sep-13 01:29N 29°43' W 095°15'0 0.0
2017-Sep-12 14:36N 29°43' W 095°15'0 0.0
2017-Sep-12 14:27N 29°43' W 095°15'0 0.0
2017-Sep-12 13:58N 29°43' W 095°15'0 0.0
2017-Sep-12 13:30N 29°43' W 095°15'0 0.0
2017-Sep-12 13:00N 29°43' W 095°15'0 0.0
2017-Sep-12 12:30N 29°43' W 095°15'0 0.0
2017-Sep-12 12:00N 29°43' W 095°15'0 0.0
2017-Sep-12 11:30N 29°43' W 095°15'0 0.0
2017-Sep-12 10:56N 29°43' W 095°15'0 0.0
2017-Sep-12 10:30N 29°43' W 095°15'0 0.9
2017-Sep-12 09:57N 29°43' W 095°15'1 1.2
2017-Sep-12 09:30N 29°43' W 095°15'1 1.0
2017-Sep-12 08:57N 29°43' W 095°15'0 0.4
2017-Sep-12 08:15N 29°43' W 095°15'0 0.1
2017-Sep-12 08:00N 29°43' W 095°15'4 5.4
2017-Sep-12 07:21N 29°45' W 095°11'2 6.1
2017-Sep-12 06:59N 29°44' W 095°09'3 6.2
2017-Sep-12 06:30N 29°45' W 095°06'1 1.7
2017-Sep-12 05:47N 29°46' W 095°06'0 0.1
2017-Sep-12 05:29N 29°47' W 095°06'0 0.1
2017-Sep-12 05:00N 29°46' W 095°06'0 0.0
2017-Sep-12 04:30N 29°46' W 095°06'0 0.0
2017-Sep-12 04:00N 29°46' W 095°06'0 0.0
2017-Sep-12 03:30N 29°46' W 095°06'0 0.0
2017-Sep-12 03:00N 29°46' W 095°06'0 0.0
2017-Sep-12 02:30N 29°46' W 095°06'0 0.0
2017-Sep-12 01:59N 29°46' W 095°06'0 0.0
2017-Sep-12 01:30N 29°46' W 095°06'0 0.0
2017-Sep-12 00:57N 29°46' W 095°06'0 0.0
2017-Sep-12 00:30N 29°46' W 095°06'0 0.0
2017-Sep-11 23:56N 29°46' W 095°06'0 0.0
2017-Sep-11 23:30N 29°46' W 095°06'0 0.0
2017-Sep-11 22:39N 29°46' W 095°06'0 0.0
2017-Sep-11 22:20N 29°46' W 095°06'0 0.0
2017-Sep-11 21:49N 29°46' W 095°06'0 0.0
2017-Sep-11 21:28N 29°46' W 095°06'0 0.0
2017-Sep-11 20:54N 29°46' W 095°06'0 0.0
2017-Sep-11 20:25N 29°46' W 095°06'0 0.0
2017-Sep-11 15:20N 29°46' W 095°06'0 0.0
2017-Sep-11 14:59N 29°46' W 095°06'0 0.0
2017-Sep-11 14:18N 29°46' W 095°06'0 0.0
2017-Sep-11 13:49N 29°46' W 095°06'0 0.0
2017-Sep-11 12:39N 29°46' W 095°06'0 0.0
2017-Sep-11 12:30N 29°46' W 095°06'  
Track history (hours):
 
Tides and Currents Weather Stations Pressure Air Temp Water Temp Dewpoint Dewpoint Depression Visibility Wind Speed Wind Dir Waves Ship Positions

Patrick J. Studdert

Owner: SHAMROCK MARINE L.L.C., Kingwood, TX. More information available from US FCC via Universal Licensing System and Coast Guard Vessel Documentation Center.

Last reported at 2017-Sep-21 08:04 UTC. Time now 2017-Sep-22 04:37 UTC.
Position N 29°38' W 090°21'.

Length 100 m; draft 2.9 m.

Type: Towing. MMSI: 367534690.

Date/timePositionNaut miles runAvg speedWind from/ knotsBaromVisibWave heightAir tempDewpointWater temp
2017-Sep-21 08:04N 29°38' W 090°21'1 5.3
2017-Sep-21 07:56N 29°37' W 090°21'5 5.0
2017-Sep-21 07:01N 29°33' W 090°24'0 4.4
2017-Sep-21 07:00N 29°33' W 090°24'2 3.5
2017-Sep-21 06:30N 29°33' W 090°26'3 5.0
2017-Sep-21 06:00N 29°34' W 090°29'3 5.1
2017-Sep-21 05:30N 29°34' W 090°32'2 4.5
2017-Sep-21 05:00N 29°34' W 090°34'2 4.5
2017-Sep-21 04:30N 29°35' W 090°37'2 4.8
2017-Sep-21 04:00N 29°36' W 090°39'2 4.7
2017-Sep-21 03:30N 29°37' W 090°42'2 3.5
2017-Sep-21 03:00N 29°35' W 090°43'2 3.4
2017-Sep-21 02:30N 29°34' W 090°44'1 1.0
2017-Sep-21 02:00N 29°34' W 090°44'2 4.7
2017-Sep-21 01:31N 29°32' W 090°46'3 5.8
2017-Sep-21 01:00N 29°32' W 090°50'3 5.6
2017-Sep-21 00:30N 29°32' W 090°53'55 4.5
2017-Sep-20 12:07N 29°51' W 091°53'1 3.5
2017-Sep-20 11:53N 29°51' W 091°54'2 4.7
2017-Sep-20 11:30N 29°51' W 091°56'3 4.8
2017-Sep-20 10:58N 29°50' W 091°59'2 4.7
2017-Sep-20 10:30N 29°49' W 092°01'2 4.8
2017-Sep-20 09:59N 29°49' W 092°04'2 4.9
2017-Sep-20 09:30N 29°48' W 092°06'2 5.0
2017-Sep-20 09:00N 29°47' W 092°09'2 4.3
2017-Sep-20 08:30N 29°47' W 092°11'3 5.2
2017-Sep-20 08:00N 29°48' W 092°14'3 5.3
2017-Sep-20 07:30N 29°49' W 092°17'2 4.7
2017-Sep-20 07:00N 29°50' W 092°19'34 4.6
2017-Sep-19 23:33N 29°56' W 092°58'0 4.8
2017-Sep-19 23:30N 29°56' W 092°58'2 4.8
2017-Sep-19 22:59N 29°56' W 093°01'2 4.7
2017-Sep-19 22:30N 29°56' W 093°04'2 4.4
2017-Sep-19 22:00N 29°56' W 093°06'2 4.6
2017-Sep-19 21:30N 29°56' W 093°09'2 4.0
2017-Sep-19 21:00N 29°57' W 093°11'2 4.8
2017-Sep-19 20:30N 29°59' W 093°13'2 4.3
2017-Sep-19 20:00N 30°01' W 093°14'2 4.3
2017-Sep-19 19:30N 30°03' W 093°16'2 4.5
2017-Sep-19 19:00N 30°05' W 093°17'2 4.1
2017-Sep-19 18:30N 30°06' W 093°18'2 3.5
2017-Sep-19 18:00N 30°05' W 093°20'0 0.2
2017-Sep-19 17:30N 30°05' W 093°20'0 0.2
2017-Sep-19 17:00N 30°05' W 093°20'0 0.5
2017-Sep-19 16:30N 30°05' W 093°20'0 0.0
2017-Sep-19 16:00N 30°05' W 093°20'0 0.6
2017-Sep-19 15:30N 30°05' W 093°20'0 0.0
2017-Sep-19 15:00N 30°05' W 093°20'0 0.0
2017-Sep-19 14:30N 30°05' W 093°20'0 0.0
2017-Sep-19 14:00N 30°05' W 093°20'0 0.0
2017-Sep-19 13:30N 30°05' W 093°20'0 0.0
2017-Sep-19 13:00N 30°05' W 093°20'1 1.3
2017-Sep-19 12:30N 30°04' W 093°20'1 2.7
2017-Sep-19 12:00N 30°04' W 093°22'1 2.2
2017-Sep-19 11:30N 30°04' W 093°23'2 4.7
2017-Sep-19 11:00N 30°04' W 093°26'2 4.8
2017-Sep-19 10:30N 30°04' W 093°28'3 5.2
2017-Sep-19 10:00N 30°04' W 093°31'7 5.2
2017-Sep-19 08:42N 30°04' W 093°39'1 5.3
2017-Sep-19 08:30N 30°04' W 093°41'2 5.0
2017-Sep-19 08:00N 30°03' W 093°43'4 5.2
2017-Sep-19 07:10N 29°60' W 093°47'5 5.0
2017-Sep-19 06:10N 29°57' W 093°52'2 5.5
2017-Sep-19 05:54N 29°56' W 093°52'60 1.2
2017-Sep-17 04:51N 29°19' W 094°47'0 0.0
2017-Sep-17 02:41N 29°19' W 094°47'0 0.0
2017-Sep-17 02:29N 29°19' W 094°47'1414154.9
2017-Sep-16 17:22N 42°21' W 070°34'2 6.6
2017-Sep-16 16:59N 42°23' W 070°34'3 6.7
2017-Sep-16 16:30N 42°26' W 070°34'3 6.6
2017-Sep-16 16:00N 42°30' W 070°34'3 6.6
2017-Sep-16 15:31N 42°33' W 070°34'3 6.8
2017-Sep-16 15:01N 42°36' W 070°34'4 7.1
2017-Sep-16 14:31N 42°40' W 070°33'4 7.0
2017-Sep-16 14:00N 42°43' W 070°35'4 7.3
2017-Sep-16 13:29N 42°47' W 070°35'22 1.2
2017-Sep-15 18:51N 43°09' W 070°31'2 6.1
2017-Sep-15 18:27N 43°11' W 070°29'3 7.4
2017-Sep-15 18:00N 43°13' W 070°27'4 7.2
2017-Sep-15 17:30N 43°16' W 070°24'3 6.9
2017-Sep-15 17:00N 43°19' W 070°21'3 7.0
2017-Sep-15 16:30N 43°22' W 070°19'4 7.2
2017-Sep-15 16:00N 43°25' W 070°16'4 7.0
2017-Sep-15 15:30N 43°28' W 070°14'4 7.2
2017-Sep-15 15:00N 43°31' W 070°11'4 7.3
2017-Sep-15 14:30N 43°34' W 070°08'4 7.1
2017-Sep-15 14:00N 43°37' W 070°05'4 6.9
2017-Sep-15 13:29N 43°40' W 070°02'147041.2
2017-Sep-14 01:50N 29°21' W 094°47'7 5.4
2017-Sep-14 00:29N 29°28' W 094°51'3 5.9
2017-Sep-14 00:00N 29°30' W 094°52'3 5.8
2017-Sep-13 23:30N 29°33' W 094°54'3 5.5
2017-Sep-13 23:00N 29°35' W 094°56'2 4.7
2017-Sep-13 22:30N 29°37' W 094°57'3 5.4
2017-Sep-13 22:00N 29°39' W 094°58'3 5.6
2017-Sep-13 21:30N 29°42' W 094°60'3 4.9
2017-Sep-13 20:59N 29°44' W 095°02'2 5.2
2017-Sep-13 20:30N 29°45' W 095°04'2 4.4
2017-Sep-13 20:00N 29°45' W 095°06'2 4.3
2017-Sep-13 19:30N 29°44' W 095°09'6 1.8
2017-Sep-13 16:21N 29°43' W 095°15'0 0.0
2017-Sep-13 15:50N 29°43' W 095°15'0 0.0
2017-Sep-13 15:28N 29°43' W 095°15'0 0.0
2017-Sep-13 14:58N 29°43' W 095°15'0 0.0
2017-Sep-13 14:28N 29°43' W 095°15'0 0.0
2017-Sep-13 14:00N 29°43' W 095°15'0 0.0
2017-Sep-13 13:30N 29°43' W 095°15'0 0.0
2017-Sep-13 12:48N 29°43' W 095°15'0 0.0
2017-Sep-13 12:30N 29°43' W 095°15'0 0.0
2017-Sep-13 11:59N 29°43' W 095°15'0 0.0
2017-Sep-13 11:30N 29°43' W 095°15'0 0.0
2017-Sep-13 10:56N 29°43' W 095°15'0 0.0
2017-Sep-13 10:30N 29°43' W 095°15'0 0.0
2017-Sep-13 09:51N 29°43' W 095°15'0 0.0
2017-Sep-13 09:24N 29°43' W 095°15'0 0.0
2017-Sep-13 09:00N 29°43' W 095°15'0 0.0
2017-Sep-13 08:30N 29°43' W 095°15'0 0.0
2017-Sep-13 07:59N 29°43' W 095°15'0 0.0
2017-Sep-13 07:31N 29°43' W 095°15'0 0.0
2017-Sep-13 06:50N 29°43' W 095°15'0 0.0
2017-Sep-13 06:30N 29°43' W 095°15'0 0.1
2017-Sep-13 06:01N 29°43' W 095°15'0 0.1
2017-Sep-13 05:12N 29°43' W 095°15'0 0.2
2017-Sep-13 04:55N 29°43' W 095°15'0 0.0
2017-Sep-13 04:27N 29°43' W 095°15'0 0.0
2017-Sep-13 04:00N 29°43' W 095°15'0 0.0
2017-Sep-13 03:29N 29°43' W 095°15'0 0.0
2017-Sep-13 02:51N 29°43' W 095°15'0 0.0
2017-Sep-13 02:28N 29°43' W 095°15'0 0.0
2017-Sep-13 02:00N 29°43' W 095°15'0 0.0
2017-Sep-13 01:29N 29°43' W 095°15'0 0.0
2017-Sep-12 14:36N 29°43' W 095°15'0 0.0
2017-Sep-12 14:27N 29°43' W 095°15'0 0.0
2017-Sep-12 13:58N 29°43' W 095°15'0 0.0
2017-Sep-12 13:30N 29°43' W 095°15'0 0.0
2017-Sep-12 13:00N 29°43' W 095°15'0 0.0
2017-Sep-12 12:30N 29°43' W 095°15'0 0.0
2017-Sep-12 12:00N 29°43' W 095°15'0 0.0
2017-Sep-12 11:30N 29°43' W 095°15'0 0.0
2017-Sep-12 10:56N 29°43' W 095°15'0 0.0
2017-Sep-12 10:30N 29°43' W 095°15'0 0.9
2017-Sep-12 09:57N 29°43' W 095°15'1 1.2
2017-Sep-12 09:30N 29°43' W 095°15'1 1.0
2017-Sep-12 08:57N 29°43' W 095°15'0 0.4
2017-Sep-12 08:15N 29°43' W 095°15'0 0.1
2017-Sep-12 08:00N 29°43' W 095°15'4 5.4
2017-Sep-12 07:21N 29°45' W 095°11'2 6.1
2017-Sep-12 06:59N 29°44' W 095°09'3 6.2
2017-Sep-12 06:30N 29°45' W 095°06'1 1.7
2017-Sep-12 05:47N 29°46' W 095°06'0 0.1
2017-Sep-12 05:29N 29°47' W 095°06'0 0.1
2017-Sep-12 05:00N 29°46' W 095°06'0 0.0
2017-Sep-12 04:30N 29°46' W 095°06'0 0.0
2017-Sep-12 04:00N 29°46' W 095°06'0 0.0
2017-Sep-12 03:30N 29°46' W 095°06'0 0.0
2017-Sep-12 03:00N 29°46' W 095°06'0 0.0
2017-Sep-12 02:30N 29°46' W 095°06'0 0.0
2017-Sep-12 01:59N 29°46' W 095°06'0 0.0
2017-Sep-12 01:30N 29°46' W 095°06'0 0.0
2017-Sep-12 00:57N 29°46' W 095°06'0 0.0
2017-Sep-12 00:30N 29°46' W 095°06'0 0.0
2017-Sep-11 23:56N 29°46' W 095°06'0 0.0
2017-Sep-11 23:30N 29°46' W 095°06'0 0.0
2017-Sep-11 22:39N 29°46' W 095°06'0 0.0
2017-Sep-11 22:20N 29°46' W 095°06'0 0.0
2017-Sep-11 21:49N 29°46' W 095°06'0 0.0
2017-Sep-11 21:28N 29°46' W 095°06'0 0.0
2017-Sep-11 20:54N 29°46' W 095°06'0 0.0
2017-Sep-11 20:25N 29°46' W 095°06'0 0.0
2017-Sep-11 15:20N 29°46' W 095°06'0 0.0
2017-Sep-11 14:59N 29°46' W 095°06'0 0.0
2017-Sep-11 14:18N 29°46' W 095°06'0 0.0
2017-Sep-11 13:49N 29°46' W 095°06'0 0.0
2017-Sep-11 12:39N 29°46' W 095°06'0 0.0
2017-Sep-11 12:30N 29°46' W 095°06'  

Dump ship's entire track history